createdAt,value
2023-03-15T00:04:16.788Z,2.20
2023-03-15T00:09:38.566Z,2.10
2023-03-15T00:15:00.373Z,2.10
2023-03-15T00:20:22.095Z,2.87
2023-03-15T00:25:45.705Z,2.63
2023-03-15T00:31:09.476Z,2.77
2023-03-15T00:36:32.602Z,3.37
2023-03-15T00:41:56.867Z,3.37
2023-03-15T00:47:18.903Z,3.50
2023-03-15T00:52:41.981Z,3.57
2023-03-15T00:58:03.751Z,3.33
2023-03-15T01:03:25.635Z,3.50
2023-03-15T01:08:47.974Z,3.23
2023-03-15T01:14:10.020Z,3.13
2023-03-15T01:19:31.786Z,2.93
2023-03-15T01:24:53.559Z,2.63
2023-03-15T01:30:15.398Z,2.47
2023-03-15T01:35:37.166Z,3.10
2023-03-15T01:40:59.895Z,2.40
2023-03-15T01:46:23.670Z,2.47
2023-03-15T01:51:51.254Z,2.30
2023-03-15T01:57:22.772Z,1.90
2023-03-15T02:03:00.580Z,2.20
2023-03-15T02:08:27.104Z,1.80
2023-03-15T02:13:50.051Z,1.70
2023-03-15T02:19:33.938Z,1.73
2023-03-15T02:25:06.828Z,2.33
2023-03-15T02:30:29.095Z,1.33
2023-03-15T02:35:51.408Z,1.83
2023-03-15T02:41:17.477Z,1.80
2023-03-15T02:46:39.742Z,1.87
2023-03-15T02:52:01.491Z,1.93
2023-03-15T02:57:23.257Z,2.20
2023-03-15T03:02:47.298Z,1.23
2023-03-15T03:08:09.107Z,1.67
2023-03-15T03:13:30.901Z,2.23
2023-03-15T03:18:52.678Z,2.17
2023-03-15T03:24:16.165Z,1.73
2023-03-15T03:29:37.899Z,2.27
2023-03-15T03:35:00.122Z,2.10
2023-03-15T03:40:21.907Z,1.70
2023-03-15T03:45:43.716Z,1.43
2023-03-15T03:51:05.764Z,1.80
2023-03-15T03:56:28.131Z,1.87
2023-03-15T04:01:51.185Z,1.80
2023-03-15T04:07:13.016Z,2.07
2023-03-15T04:12:34.887Z,1.63
2023-03-15T04:17:56.804Z,1.87
2023-03-15T04:23:21.718Z,1.70
2023-03-15T04:28:43.478Z,2.03
2023-03-15T04:34:05.771Z,2.10
2023-03-15T04:39:27.601Z,2.10
2023-03-15T04:44:49.474Z,1.97
2023-03-15T04:50:11.627Z,2.43
2023-03-15T04:55:33.408Z,2.20
2023-03-15T05:00:55.206Z,1.90
2023-03-15T05:06:16.925Z,2.27
2023-03-15T05:11:38.611Z,2.53
2023-03-15T05:17:02.210Z,2.43
2023-03-15T05:22:25.960Z,3.07
2023-03-15T05:27:47.724Z,2.37
2023-03-15T05:33:09.524Z,2.70
2023-03-15T05:38:31.235Z,2.80
2023-03-15T05:43:53.002Z,2.50
2023-03-15T05:49:14.723Z,3.00
2023-03-15T05:54:36.821Z,2.87
2023-03-15T05:59:58.618Z,3.10
2023-03-15T06:05:20.329Z,3.17
2023-03-15T06:10:42.135Z,2.73
2023-03-15T06:16:04.377Z,2.97
2023-03-15T06:21:26.388Z,2.83
2023-03-15T06:26:48.108Z,2.63
2023-03-15T06:32:10.081Z,3.33
2023-03-15T06:37:35.430Z,3.83
2023-03-15T06:42:57.436Z,3.60
2023-03-15T06:48:19.207Z,3.90
2023-03-15T06:53:40.959Z,3.50
2023-03-15T06:59:03.530Z,3.57
2023-03-15T07:04:25.264Z,3.27
2023-03-15T07:09:47.034Z,3.17
2023-03-15T07:15:09.284Z,3.93
2023-03-15T07:20:31.600Z,3.13
2023-03-15T07:25:55.678Z,2.73
2023-03-15T07:31:17.730Z,3.00
2023-03-15T07:36:40.559Z,2.93
2023-03-15T07:42:02.395Z,3.07
2023-03-15T07:47:24.218Z,2.40
2023-03-15T07:52:45.989Z,2.77
2023-03-15T07:58:07.710Z,2.50
2023-03-15T08:03:29.518Z,2.40
2023-03-15T08:08:51.325Z,2.10
2023-03-15T08:14:13.022Z,2.30
2023-03-15T08:19:34.747Z,2.87
2023-03-15T08:24:57.599Z,2.20
2023-03-15T08:30:21.059Z,2.40
2023-03-15T08:35:42.935Z,2.30
2023-03-15T08:41:04.843Z,2.37
2023-03-15T08:46:27.646Z,3.00
2023-03-15T08:51:49.464Z,2.20
2023-03-15T08:57:12.719Z,2.70
2023-03-15T09:02:35.014Z,2.27
2023-03-15T09:07:56.831Z,2.43
2023-03-15T09:13:18.537Z,2.50
2023-03-15T09:18:44.647Z,1.92
2023-03-15T09:24:06.791Z,1.83
2023-03-15T09:29:28.607Z,2.43
2023-03-15T09:34:51.210Z,2.90
2023-03-15T09:40:22.110Z,3.42
2023-03-15T09:46:05.681Z,2.67
2023-03-15T09:51:57.177Z,2.27
2023-03-15T09:57:22.855Z,1.60
2023-03-15T10:03:01.397Z,2.97
2023-03-15T10:08:24.846Z,2.38
2023-03-15T10:14:13.107Z,1.97
2023-03-15T10:19:59.037Z,1.42
2023-03-15T10:25:29.497Z,1.67
2023-03-15T10:30:52.254Z,1.57
2023-03-15T10:36:22.068Z,1.85
2023-03-15T10:41:46.677Z,1.70
2023-03-15T10:47:24.038Z,1.10
2023-03-15T10:52:46.357Z,1.30
2023-03-15T10:58:31.327Z,1.42
2023-03-15T11:04:13.885Z,1.30
2023-03-15T11:10:06.970Z,1.60
2023-03-15T11:15:28.711Z,1.67
2023-03-15T11:20:54.553Z,1.67
2023-03-15T11:26:33.015Z,1.38
2023-03-15T11:31:56.163Z,1.50
2023-03-15T11:37:22.750Z,1.30
2023-03-15T11:42:51.783Z,1.30
2023-03-15T11:48:31.178Z,1.58
2023-03-15T11:54:11.432Z,1.70
2023-03-15T11:59:36.631Z,1.30
2023-03-15T12:05:01.773Z,0.98
2023-03-15T12:10:33.708Z,0.98
2023-03-15T12:15:56.264Z,0.80
2023-03-15T12:21:31.474Z,1.00
2023-03-15T12:27:03.757Z,1.30
2023-03-15T12:32:27.042Z,0.90
2023-03-15T12:37:52.084Z,1.17
2023-03-15T12:43:13.824Z,1.10
2023-03-15T12:48:35.662Z,1.10
2023-03-15T12:53:57.871Z,0.93
2023-03-15T12:59:19.536Z,1.15
2023-03-15T13:04:42.069Z,1.33
2023-03-15T13:10:35.438Z,1.90
2023-03-15T13:16:22.164Z,1.50
2023-03-15T13:22:04.960Z,1.55
2023-03-15T13:27:45.219Z,2.42
2023-03-15T13:33:22.791Z,1.38
2023-03-15T13:38:53.292Z,1.52
2023-03-15T13:44:23.662Z,1.40
2023-03-15T13:49:45.435Z,1.43
2023-03-15T13:55:07.975Z,1.40
2023-03-15T14:00:33.842Z,1.58
2023-03-15T14:05:58.102Z,1.30
2023-03-15T14:11:37.066Z,1.90
2023-03-15T14:17:05.837Z,1.33
2023-03-15T14:22:28.370Z,1.40
2023-03-15T14:27:50.543Z,1.30
2023-03-15T14:33:26.730Z,1.50
2023-03-15T14:38:57.894Z,1.30
2023-03-15T14:44:20.330Z,1.50
2023-03-15T14:49:42.097Z,1.40
2023-03-15T14:55:04.557Z,1.80
2023-03-15T15:00:26.896Z,1.90
2023-03-15T15:05:48.844Z,1.80
2023-03-15T15:11:11.072Z,1.67
2023-03-15T15:16:32.963Z,1.13
2023-03-15T15:21:54.909Z,1.23
2023-03-15T15:27:16.673Z,1.57
2023-03-15T15:32:38.446Z,1.10
2023-03-15T15:38:00.286Z,1.00
2023-03-15T15:43:22.049Z,1.07
2023-03-15T15:48:43.975Z,1.07
2023-03-15T15:54:06.118Z,1.20
2023-03-15T15:59:28.282Z,1.10
2023-03-15T16:04:50.496Z,1.10
2023-03-15T16:10:19.603Z,1.23
2023-03-15T16:15:41.414Z,1.20
2023-03-15T16:21:03.297Z,1.63
2023-03-15T16:26:25.248Z,1.10
2023-03-15T16:31:48.902Z,1.27
2023-03-15T16:37:13.651Z,1.30
2023-03-15T16:42:35.360Z,1.60
2023-03-15T16:47:57.138Z,1.10
2023-03-15T16:53:19.333Z,1.97
2023-03-15T16:58:42.635Z,1.30
2023-03-15T17:04:04.800Z,1.60
2023-03-15T17:09:28.624Z,1.60
2023-03-15T17:14:51.880Z,2.23
2023-03-15T17:20:14.221Z,1.90
2023-03-15T17:25:36.395Z,1.90
2023-03-15T17:31:14.220Z,1.70
2023-03-15T17:36:41.085Z,2.00
2023-03-15T17:42:02.889Z,1.80
2023-03-15T17:47:24.652Z,2.40
2023-03-15T17:52:54.669Z,2.30
2023-03-15T17:58:19.774Z,2.40
2023-03-15T18:03:43.677Z,2.83
2023-03-15T18:09:05.968Z,2.60
2023-03-15T18:14:27.820Z,2.90
2023-03-15T18:19:49.653Z,3.20
2023-03-15T18:25:21.525Z,4.53
2023-03-15T18:30:44.721Z,3.43
2023-03-15T18:36:07.206Z,4.83
2023-03-15T18:41:29.012Z,4.20
2023-03-15T18:46:50.731Z,3.57
2023-03-15T18:52:14.434Z,3.47
2023-03-15T18:57:36.999Z,2.60
2023-03-15T19:03:00.677Z,3.43
2023-03-15T19:08:23.575Z,4.60
2023-03-15T19:13:50.881Z,3.90
2023-03-15T19:19:12.653Z,4.00
2023-03-15T19:24:36.211Z,5.00
2023-03-15T19:29:58.277Z,9.30
2023-03-15T19:35:20.994Z,4.90
2023-03-15T19:40:42.812Z,4.00
2023-03-15T19:46:07.852Z,9.63
2023-03-15T19:51:30.565Z,5.40
2023-03-15T19:56:53.978Z,5.37
2023-03-15T20:02:15.784Z,5.47
2023-03-15T20:07:38.261Z,5.70
2023-03-15T20:13:00.053Z,4.80
2023-03-15T20:18:21.779Z,5.50
2023-03-15T20:23:43.907Z,5.77
2023-03-15T20:29:05.706Z,5.30
2023-03-15T20:34:27.712Z,5.07
2023-03-15T20:39:50.287Z,6.53
2023-03-15T20:45:13.714Z,4.80
2023-03-15T20:50:35.762Z,4.67
2023-03-15T20:55:57.594Z,4.57
2023-03-15T21:01:19.687Z,5.47
2023-03-15T21:06:41.552Z,5.00
2023-03-15T21:12:03.609Z,5.63
2023-03-15T21:17:25.381Z,10.33
2023-03-15T21:22:47.264Z,10.53
2023-03-15T21:28:09.029Z,7.00
2023-03-15T21:33:32.501Z,6.93
2023-03-15T21:38:54.223Z,6.67
2023-03-15T21:44:16.308Z,7.00
2023-03-15T21:49:38.823Z,6.83
2023-03-15T21:55:01.140Z,6.60
2023-03-15T22:00:24.082Z,7.07
2023-03-15T22:05:46.469Z,7.30
2023-03-15T22:11:08.272Z,7.33
2023-03-15T22:16:30.043Z,6.83
2023-03-15T22:21:52.041Z,7.00
2023-03-15T22:27:13.749Z,6.27
2023-03-15T22:32:35.516Z,6.33
2023-03-15T22:37:57.376Z,6.47
2023-03-15T22:43:19.834Z,7.13
2023-03-15T22:48:41.601Z,7.03
2023-03-15T22:54:03.386Z,7.33
2023-03-15T22:59:28.945Z,8.33
2023-03-15T23:04:51.838Z,7.97
2023-03-15T23:10:14.186Z,7.07
2023-03-15T23:15:35.983Z,7.47
2023-03-15T23:21:06.115Z,7.60
2023-03-15T23:26:27.926Z,8.23
2023-03-15T23:31:50.442Z,8.20
2023-03-15T23:37:15.040Z,8.77
2023-03-15T23:42:37.699Z,9.70
2023-03-15T23:47:59.518Z,8.40
2023-03-15T23:53:22.123Z,11.03
2023-03-15T23:58:43.828Z,10.37
